Akureyri, Iceland
Current Conditions -  °F | °C
As of 9:00 AM on Sunday 26 Oct 2014 (Local Time) from BIAR Reporting Station
Broken Clouds Broken Clouds  
Wind Chill: 34°   Ceiling: 5100
Heat Index: 34°   Visibility: 6mi
Dew Point: 27°   Wind: 3mph
Humidity: 75%   Direction: 320°NW
Pressure: 29"   Gusts: NA
Location:  65.69°N, 18.12°W
Report Text: BIAR 260900Z 32003KT 9999 BKN051 01/M03 Q0982
Loading
Personal Weather Stations






























Interactive Weather Map
Tropical Storm Tracking
New forecast layout! Learn more

10-Day Weather Forecast

Advertisements
Track Severe Weather on mobile